sensor_id;sensor_type;location;lat;lon;timestamp;P1;P2;P0
63915;PMS5003;50094;51.356;-0.196;2022-07-31T00:01:55;4;4;
63915;PMS5003;50094;51.356;-0.196;2022-07-31T00:04:23;7;5;
63915;PMS5003;50094;51.356;-0.196;2022-07-31T00:06:50;7;4;
63915;PMS5003;50094;51.356;-0.196;2022-07-31T00:09:18;4;3;
63915;PMS5003;50094;51.356;-0.196;2022-07-31T00:11:46;4;4;
63915;PMS5003;50094;51.356;-0.196;2022-07-31T00:14:13;6;4;
63915;PMS5003;50094;51.356;-0.196;2022-07-31T00:16:41;4;4;
63915;PMS5003;50094;51.356;-0.196;2022-07-31T00:19:09;3;3;
63915;PMS5003;50094;51.356;-0.196;2022-07-31T00:21:36;5;5;
63915;PMS5003;50094;51.356;-0.196;2022-07-31T00:24:04;4;4;
63915;PMS5003;50094;51.356;-0.196;2022-07-31T00:26:32;4;4;
63915;PMS5003;50094;51.356;-0.196;2022-07-31T00:28:59;6;6;
63915;PMS5003;50094;51.356;-0.196;2022-07-31T00:31:27;5;4;
63915;PMS5003;50094;51.356;-0.196;2022-07-31T00:33:54;4;4;
63915;PMS5003;50094;51.356;-0.196;2022-07-31T00:36:22;6;6;
63915;PMS5003;50094;51.356;-0.196;2022-07-31T00:38:50;7;6;
63915;PMS5003;50094;51.356;-0.196;2022-07-31T00:41:18;3;3;
63915;PMS5003;50094;51.356;-0.196;2022-07-31T00:43:45;4;4;
63915;PMS5003;50094;51.356;-0.196;2022-07-31T00:46:13;6;4;
63915;PMS5003;50094;51.356;-0.196;2022-07-31T00:48:40;2;2;
63915;PMS5003;50094;51.356;-0.196;2022-07-31T00:51:08;4;4;
63915;PMS5003;50094;51.356;-0.196;2022-07-31T00:53:36;5;5;
63915;PMS5003;50094;51.356;-0.196;2022-07-31T00:56:04;5;5;
63915;PMS5003;50094;51.356;-0.196;2022-07-31T00:58:31;6;6;
63915;PMS5003;50094;51.356;-0.196;2022-07-31T01:00:59;5;5;
63915;PMS5003;50094;51.356;-0.196;2022-07-31T01:03:26;5;5;
63915;PMS5003;50094;51.356;-0.196;2022-07-31T01:05:54;4;4;
63915;PMS5003;50094;51.356;-0.196;2022-07-31T01:08:22;5;4;
63915;PMS5003;50094;51.356;-0.196;2022-07-31T01:10:52;4;4;
63915;PMS5003;50094;51.356;-0.196;2022-07-31T01:13:25;6;6;
63915;PMS5003;50094;51.356;-0.196;2022-07-31T01:15:58;5;5;
63915;PMS5003;50094;51.356;-0.196;2022-07-31T01:18:27;5;5;
63915;PMS5003;50094;51.356;-0.196;2022-07-31T01:20:57;5;5;
63915;PMS5003;50094;51.356;-0.196;2022-07-31T01:23:34;6;5;
63915;PMS5003;50094;51.356;-0.196;2022-07-31T01:26:21;6;6;
63915;PMS5003;50094;51.356;-0.196;2022-07-31T01:29:02;5;5;
63915;PMS5003;50094;51.356;-0.196;2022-07-31T01:31:35;6;6;
63915;PMS5003;50094;51.356;-0.196;2022-07-31T01:34:06;4;4;
63915;PMS5003;50094;51.356;-0.196;2022-07-31T01:36:42;7;7;
63915;PMS5003;50094;51.356;-0.196;2022-07-31T01:39:13;6;6;
63915;PMS5003;50094;51.356;-0.196;2022-07-31T01:41:42;6;6;
63915;PMS5003;50094;51.356;-0.196;2022-07-31T01:44:14;6;6;
63915;PMS5003;50094;51.356;-0.196;2022-07-31T01:46:43;6;6;
63915;PMS5003;50094;51.356;-0.196;2022-07-31T01:49:11;8;8;
63915;PMS5003;50094;51.356;-0.196;2022-07-31T01:51:40;6;5;
63915;PMS5003;50094;51.356;-0.196;2022-07-31T01:54:09;7;5;
63915;PMS5003;50094;51.356;-0.196;2022-07-31T01:56:38;6;6;
63915;PMS5003;50094;51.356;-0.196;2022-07-31T01:59:07;6;6;
63915;PMS5003;50094;51.356;-0.196;2022-07-31T02:01:35;6;6;
63915;PMS5003;50094;51.356;-0.196;2022-07-31T02:04:04;6;5;
63915;PMS5003;50094;51.356;-0.196;2022-07-31T02:06:34;5;5;
63915;PMS5003;50094;51.356;-0.196;2022-07-31T02:09:02;7;5;
63915;PMS5003;50094;51.356;-0.196;2022-07-31T02:11:30;6;6;
63915;PMS5003;50094;51.356;-0.196;2022-07-31T02:13:58;7;7;
63915;PMS5003;50094;51.356;-0.196;2022-07-31T02:16:26;6;6;
63915;PMS5003;50094;51.356;-0.196;2022-07-31T02:18:55;6;6;
63915;PMS5003;50094;51.356;-0.196;2022-07-31T02:21:24;4;4;
63915;PMS5003;50094;51.356;-0.196;2022-07-31T02:23:52;6;5;
63915;PMS5003;50094;51.356;-0.196;2022-07-31T02:26:20;5;5;
63915;PMS5003;50094;51.356;-0.196;2022-07-31T02:28:47;8;7;
63915;PMS5003;50094;51.356;-0.196;2022-07-31T02:31:16;4;4;
63915;PMS5003;50094;51.356;-0.196;2022-07-31T02:33:47;5;5;
63915;PMS5003;50094;51.356;-0.196;2022-07-31T02:36:16;5;5;
63915;PMS5003;50094;51.356;-0.196;2022-07-31T02:38:45;4;4;
63915;PMS5003;50094;51.356;-0.196;2022-07-31T02:41:15;4;4;
63915;PMS5003;50094;51.356;-0.196;2022-07-31T02:43:43;4;4;
63915;PMS5003;50094;51.356;-0.196;2022-07-31T02:46:12;5;5;
63915;PMS5003;50094;51.356;-0.196;2022-07-31T02:48:40;5;5;
63915;PMS5003;50094;51.356;-0.196;2022-07-31T02:51:08;4;4;
63915;PMS5003;50094;51.356;-0.196;2022-07-31T02:53:35;3;3;
63915;PMS5003;50094;51.356;-0.196;2022-07-31T02:56:04;3;3;
63915;PMS5003;50094;51.356;-0.196;2022-07-31T02:58:31;4;4;
63915;PMS5003;50094;51.356;-0.196;2022-07-31T03:01:00;4;4;
63915;PMS5003;50094;51.356;-0.196;2022-07-31T03:03:30;1;1;
63915;PMS5003;50094;51.356;-0.196;2022-07-31T03:05:57;3;3;
63915;PMS5003;50094;51.356;-0.196;2022-07-31T03:08:25;5;5;
63915;PMS5003;50094;51.356;-0.196;2022-07-31T03:10:53;3;3;
63915;PMS5003;50094;51.356;-0.196;2022-07-31T03:13:21;3;3;
63915;PMS5003;50094;51.356;-0.196;2022-07-31T03:15:51;2;2;
63915;PMS5003;50094;51.356;-0.196;2022-07-31T03:18:21;4;3;
63915;PMS5003;50094;51.356;-0.196;2022-07-31T03:20:49;3;3;
63915;PMS5003;50094;51.356;-0.196;2022-07-31T03:23:18;4;3;
63915;PMS5003;50094;51.356;-0.196;2022-07-31T03:25:48;1;1;
63915;PMS5003;50094;51.356;-0.196;2022-07-31T03:28:16;3;3;
63915;PMS5003;50094;51.356;-0.196;2022-07-31T03:30:43;3;2;
63915;PMS5003;50094;51.356;-0.196;2022-07-31T03:33:11;2;2;
63915;PMS5003;50094;51.356;-0.196;2022-07-31T03:35:39;3;3;
63915;PMS5003;50094;51.356;-0.196;2022-07-31T03:38:06;1;1;
63915;PMS5003;50094;51.356;-0.196;2022-07-31T03:40:34;0;0;
63915;PMS5003;50094;51.356;-0.196;2022-07-31T03:43:01;3;2;
63915;PMS5003;50094;51.356;-0.196;2022-07-31T03:45:30;3;2;
63915;PMS5003;50094;51.356;-0.196;2022-07-31T03:47:59;2;2;
63915;PMS5003;50094;51.356;-0.196;2022-07-31T03:50:28;4;2;
63915;PMS5003;50094;51.356;-0.196;2022-07-31T03:52:55;3;3;
63915;PMS5003;50094;51.356;-0.196;2022-07-31T03:55:23;2;2;
63915;PMS5003;50094;51.356;-0.196;2022-07-31T03:57:52;2;2;
63915;PMS5003;50094;51.356;-0.196;2022-07-31T04:00:21;2;2;
63915;PMS5003;50094;51.356;-0.196;2022-07-31T04:02:50;3;3;
63915;PMS5003;50094;51.356;-0.196;2022-07-31T04:05:17;1;1;
63915;PMS5003;50094;51.356;-0.196;2022-07-31T04:07:44;5;3;
63915;PMS5003;50094;51.356;-0.196;2022-07-31T04:10:12;3;2;
63915;PMS5003;50094;51.356;-0.196;2022-07-31T04:12:39;2;2;
63915;PMS5003;50094;51.356;-0.196;2022-07-31T04:15:07;4;2;
63915;PMS5003;50094;51.356;-0.196;2022-07-31T04:17:35;2;2;
63915;PMS5003;50094;51.356;-0.196;2022-07-31T04:20:04;2;2;
63915;PMS5003;50094;51.356;-0.196;2022-07-31T04:22:32;2;2;
63915;PMS5003;50094;51.356;-0.196;2022-07-31T04:24:59;3;2;
63915;PMS5003;50094;51.356;-0.196;2022-07-31T04:27:27;4;2;
63915;PMS5003;50094;51.356;-0.196;2022-07-31T04:29:55;1;1;
63915;PMS5003;50094;51.356;-0.196;2022-07-31T04:32:23;1;1;
63915;PMS5003;50094;51.356;-0.196;2022-07-31T04:34:51;3;3;
63915;PMS5003;50094;51.356;-0.196;2022-07-31T04:37:18;2;2;
63915;PMS5003;50094;51.356;-0.196;2022-07-31T04:39:46;3;3;
63915;PMS5003;50094;51.356;-0.196;2022-07-31T04:42:14;2;2;
63915;PMS5003;50094;51.356;-0.196;2022-07-31T04:44:41;3;3;
63915;PMS5003;50094;51.356;-0.196;2022-07-31T04:47:09;2;2;
63915;PMS5003;50094;51.356;-0.196;2022-07-31T04:49:37;2;2;
63915;PMS5003;50094;51.356;-0.196;2022-07-31T04:52:04;4;3;
63915;PMS5003;50094;51.356;-0.196;2022-07-31T04:54:32;3;3;
63915;PMS5003;50094;51.356;-0.196;2022-07-31T04:56:59;1;1;
63915;PMS5003;50094;51.356;-0.196;2022-07-31T04:59:27;1;1;
63915;PMS5003;50094;51.356;-0.196;2022-07-31T05:01:55;3;3;
63915;PMS5003;50094;51.356;-0.196;2022-07-31T05:04:22;1;1;
63915;PMS5003;50094;51.356;-0.196;2022-07-31T05:06:50;3;3;
63915;PMS5003;50094;51.356;-0.196;2022-07-31T05:09:20;3;2;
63915;PMS5003;50094;51.356;-0.196;2022-07-31T05:11:48;3;3;
63915;PMS5003;50094;51.356;-0.196;2022-07-31T05:14:17;0;0;
63915;PMS5003;50094;51.356;-0.196;2022-07-31T05:16:46;2;1;
63915;PMS5003;50094;51.356;-0.196;2022-07-31T05:19:14;3;3;
63915;PMS5003;50094;51.356;-0.196;2022-07-31T05:21:42;2;2;
63915;PMS5003;50094;51.356;-0.196;2022-07-31T05:24:10;2;2;
63915;PMS5003;50094;51.356;-0.196;2022-07-31T05:26:37;2;2;
63915;PMS5003;50094;51.356;-0.196;2022-07-31T05:29:04;2;2;
63915;PMS5003;50094;51.356;-0.196;2022-07-31T05:31:32;2;2;
63915;PMS5003;50094;51.356;-0.196;2022-07-31T05:33:59;2;2;
63915;PMS5003;50094;51.356;-0.196;2022-07-31T05:36:27;3;2;
63915;PMS5003;50094;51.356;-0.196;2022-07-31T05:38:55;5;4;
63915;PMS5003;50094;51.356;-0.196;2022-07-31T05:41:22;3;2;
63915;PMS5003;50094;51.356;-0.196;2022-07-31T05:43:50;2;2;
63915;PMS5003;50094;51.356;-0.196;2022-07-31T05:46:18;1;1;
63915;PMS5003;50094;51.356;-0.196;2022-07-31T05:48:45;3;3;
63915;PMS5003;50094;51.356;-0.196;2022-07-31T05:51:13;2;2;
63915;PMS5003;50094;51.356;-0.196;2022-07-31T05:53:41;3;2;
63915;PMS5003;50094;51.356;-0.196;2022-07-31T05:56:08;3;3;
63915;PMS5003;50094;51.356;-0.196;2022-07-31T05:58:36;2;2;
63915;PMS5003;50094;51.356;-0.196;2022-07-31T06:01:03;3;2;
63915;PMS5003;50094;51.356;-0.196;2022-07-31T06:03:31;1;1;
63915;PMS5003;50094;51.356;-0.196;2022-07-31T06:05:59;2;2;
63915;PMS5003;50094;51.356;-0.196;2022-07-31T06:08:26;4;2;
63915;PMS5003;50094;51.356;-0.196;2022-07-31T06:10:54;2;2;
63915;PMS5003;50094;51.356;-0.196;2022-07-31T06:13:22;2;0;
63915;PMS5003;50094;51.356;-0.196;2022-07-31T06:15:51;2;2;
63915;PMS5003;50094;51.356;-0.196;2022-07-31T06:18:19;3;2;
63915;PMS5003;50094;51.356;-0.196;2022-07-31T06:20:46;4;4;
63915;PMS5003;50094;51.356;-0.196;2022-07-31T06:23:14;2;1;
63915;PMS5003;50094;51.356;-0.196;2022-07-31T06:25:42;3;3;
63915;PMS5003;50094;51.356;-0.196;2022-07-31T06:28:09;6;3;
63915;PMS5003;50094;51.356;-0.196;2022-07-31T06:30:37;1;1;
63915;PMS5003;50094;51.356;-0.196;2022-07-31T06:33:05;3;3;
63915;PMS5003;50094;51.356;-0.196;2022-07-31T06:35:32;1;1;
63915;PMS5003;50094;51.356;-0.196;2022-07-31T06:38:00;3;3;
63915;PMS5003;50094;51.356;-0.196;2022-07-31T06:40:28;2;2;
63915;PMS5003;50094;51.356;-0.196;2022-07-31T06:42:55;4;2;
63915;PMS5003;50094;51.356;-0.196;2022-07-31T06:45:22;3;1;
63915;PMS5003;50094;51.356;-0.196;2022-07-31T06:47:49;3;3;
63915;PMS5003;50094;51.356;-0.196;2022-07-31T06:50:16;2;2;
63915;PMS5003;50094;51.356;-0.196;2022-07-31T06:52:44;1;1;
63915;PMS5003;50094;51.356;-0.196;2022-07-31T06:55:12;2;2;
63915;PMS5003;50094;51.356;-0.196;2022-07-31T06:57:39;1;1;
63915;PMS5003;50094;51.356;-0.196;2022-07-31T07:00:07;5;4;
63915;PMS5003;50094;51.356;-0.196;2022-07-31T07:02:35;3;3;
63915;PMS5003;50094;51.356;-0.196;2022-07-31T07:05:04;3;3;
63915;PMS5003;50094;51.356;-0.196;2022-07-31T07:07:33;3;2;
63915;PMS5003;50094;51.356;-0.196;2022-07-31T07:10:02;1;1;
63915;PMS5003;50094;51.356;-0.196;2022-07-31T07:12:30;2;1;
63915;PMS5003;50094;51.356;-0.196;2022-07-31T07:14:57;3;2;
63915;PMS5003;50094;51.356;-0.196;2022-07-31T07:17:25;3;3;
63915;PMS5003;50094;51.356;-0.196;2022-07-31T07:19:53;4;2;
63915;PMS5003;50094;51.356;-0.196;2022-07-31T07:22:20;4;4;
63915;PMS5003;50094;51.356;-0.196;2022-07-31T07:24:48;6;6;
63915;PMS5003;50094;51.356;-0.196;2022-07-31T07:27:15;4;3;
63915;PMS5003;50094;51.356;-0.196;2022-07-31T07:29:43;3;2;
63915;PMS5003;50094;51.356;-0.196;2022-07-31T07:32:10;2;2;
63915;PMS5003;50094;51.356;-0.196;2022-07-31T07:34:37;3;3;
63915;PMS5003;50094;51.356;-0.196;2022-07-31T07:37:05;3;2;
63915;PMS5003;50094;51.356;-0.196;2022-07-31T07:39:32;4;1;
63915;PMS5003;50094;51.356;-0.196;2022-07-31T07:42:00;1;1;
63915;PMS5003;50094;51.356;-0.196;2022-07-31T07:44:28;1;1;
63915;PMS5003;50094;51.356;-0.196;2022-07-31T07:46:55;1;1;
63915;PMS5003;50094;51.356;-0.196;2022-07-31T07:49:23;3;3;
63915;PMS5003;50094;51.356;-0.196;2022-07-31T07:51:51;3;2;
63915;PMS5003;50094;51.356;-0.196;2022-07-31T07:54:18;2;1;
63915;PMS5003;50094;51.356;-0.196;2022-07-31T07:56:46;3;2;
63915;PMS5003;50094;51.356;-0.196;2022-07-31T07:59:14;2;2;
63915;PMS5003;50094;51.356;-0.196;2022-07-31T08:01:41;3;3;
63915;PMS5003;50094;51.356;-0.196;2022-07-31T08:04:09;2;2;
63915;PMS5003;50094;51.356;-0.196;2022-07-31T08:06:37;1;1;
63915;PMS5003;50094;51.356;-0.196;2022-07-31T08:09:04;2;2;
63915;PMS5003;50094;51.356;-0.196;2022-07-31T08:11:32;1;1;
63915;PMS5003;50094;51.356;-0.196;2022-07-31T08:14:00;0;0;
63915;PMS5003;50094;51.356;-0.196;2022-07-31T08:16:27;2;2;
63915;PMS5003;50094;51.356;-0.196;2022-07-31T08:18:55;1;1;
63915;PMS5003;50094;51.356;-0.196;2022-07-31T08:21:23;2;2;
63915;PMS5003;50094;51.356;-0.196;2022-07-31T08:23:50;3;2;
63915;PMS5003;50094;51.356;-0.196;2022-07-31T08:26:18;3;1;
63915;PMS5003;50094;51.356;-0.196;2022-07-31T08:28:46;2;2;
63915;PMS5003;50094;51.356;-0.196;2022-07-31T08:31:13;2;2;
63915;PMS5003;50094;51.356;-0.196;2022-07-31T08:33:41;1;1;
63915;PMS5003;50094;51.356;-0.196;2022-07-31T08:36:09;2;2;
63915;PMS5003;50094;51.356;-0.196;2022-07-31T08:38:36;3;3;
63915;PMS5003;50094;51.356;-0.196;2022-07-31T08:41:04;2;2;
63915;PMS5003;50094;51.356;-0.196;2022-07-31T08:43:32;2;2;
63915;PMS5003;50094;51.356;-0.196;2022-07-31T08:45:59;2;2;
63915;PMS5003;50094;51.356;-0.196;2022-07-31T08:48:27;2;2;
63915;PMS5003;50094;51.356;-0.196;2022-07-31T08:50:59;3;2;
63915;PMS5003;50094;51.356;-0.196;2022-07-31T08:53:29;3;1;
63915;PMS5003;50094;51.356;-0.196;2022-07-31T08:56:01;3;1;
63915;PMS5003;50094;51.356;-0.196;2022-07-31T08:58:29;1;1;
63915;PMS5003;50094;51.356;-0.196;2022-07-31T09:00:57;2;2;
63915;PMS5003;50094;51.356;-0.196;2022-07-31T09:03:25;3;2;
63915;PMS5003;50094;51.356;-0.196;2022-07-31T09:05:53;3;3;
63915;PMS5003;50094;51.356;-0.196;2022-07-31T09:08:20;2;2;
63915;PMS5003;50094;51.356;-0.196;2022-07-31T09:10:59;3;3;
63915;PMS5003;50094;51.356;-0.196;2022-07-31T09:13:27;2;2;
63915;PMS5003;50094;51.356;-0.196;2022-07-31T09:15:56;2;1;
63915;PMS5003;50094;51.356;-0.196;2022-07-31T09:18:24;2;2;
63915;PMS5003;50094;51.356;-0.196;2022-07-31T09:20:53;3;3;
63915;PMS5003;50094;51.356;-0.196;2022-07-31T09:23:22;2;2;
63915;PMS5003;50094;51.356;-0.196;2022-07-31T09:25:51;1;1;
63915;PMS5003;50094;51.356;-0.196;2022-07-31T09:28:18;4;2;
63915;PMS5003;50094;51.356;-0.196;2022-07-31T09:30:52;2;2;
63915;PMS5003;50094;51.356;-0.196;2022-07-31T09:33:20;4;2;
63915;PMS5003;50094;51.356;-0.196;2022-07-31T09:35:48;2;1;
63915;PMS5003;50094;51.356;-0.196;2022-07-31T09:38:15;2;2;
63915;PMS5003;50094;51.356;-0.196;2022-07-31T09:40:44;2;2;
63915;PMS5003;50094;51.356;-0.196;2022-07-31T09:43:14;3;1;
63915;PMS5003;50094;51.356;-0.196;2022-07-31T09:45:43;2;2;
63915;PMS5003;50094;51.356;-0.196;2022-07-31T09:48:11;2;1;
63915;PMS5003;50094;51.356;-0.196;2022-07-31T09:50:39;3;1;
63915;PMS5003;50094;51.356;-0.196;2022-07-31T09:53:17;3;1;
63915;PMS5003;50094;51.356;-0.196;2022-07-31T09:55:48;1;1;
63915;PMS5003;50094;51.356;-0.196;2022-07-31T09:58:15;2;2;
63915;PMS5003;50094;51.356;-0.196;2022-07-31T10:00:43;1;1;
63915;PMS5003;50094;51.356;-0.196;2022-07-31T10:03:11;1;1;
63915;PMS5003;50094;51.356;-0.196;2022-07-31T10:05:40;1;1;
63915;PMS5003;50094;51.356;-0.196;2022-07-31T10:08:09;0;0;
63915;PMS5003;50094;51.356;-0.196;2022-07-31T10:10:38;1;1;
63915;PMS5003;50094;51.356;-0.196;2022-07-31T10:13:10;1;1;
63915;PMS5003;50094;51.356;-0.196;2022-07-31T10:15:40;1;1;
63915;PMS5003;50094;51.356;-0.196;2022-07-31T10:18:07;2;2;
63915;PMS5003;50094;51.356;-0.196;2022-07-31T10:20:35;2;2;
63915;PMS5003;50094;51.356;-0.196;2022-07-31T10:23:05;1;1;
63915;PMS5003;50094;51.356;-0.196;2022-07-31T10:25:44;1;1;
63915;PMS5003;50094;51.356;-0.196;2022-07-31T10:28:13;0;0;
63915;PMS5003;50094;51.356;-0.196;2022-07-31T10:30:41;2;2;
63915;PMS5003;50094;51.356;-0.196;2022-07-31T10:33:09;3;2;
63915;PMS5003;50094;51.356;-0.196;2022-07-31T10:35:38;1;1;
63915;PMS5003;50094;51.356;-0.196;2022-07-31T10:38:10;2;2;
63915;PMS5003;50094;51.356;-0.196;2022-07-31T10:40:46;2;2;
63915;PMS5003;50094;51.356;-0.196;2022-07-31T10:43:19;3;3;
63915;PMS5003;50094;51.356;-0.196;2022-07-31T10:45:52;1;1;
63915;PMS5003;50094;51.356;-0.196;2022-07-31T10:48:21;0;0;
63915;PMS5003;50094;51.356;-0.196;2022-07-31T10:50:59;2;2;
63915;PMS5003;50094;51.356;-0.196;2022-07-31T10:53:27;1;1;
63915;PMS5003;50094;51.356;-0.196;2022-07-31T10:55:58;0;0;
63915;PMS5003;50094;51.356;-0.196;2022-07-31T10:58:27;4;2;
63915;PMS5003;50094;51.356;-0.196;2022-07-31T11:01:07;4;3;
63915;PMS5003;50094;51.356;-0.196;2022-07-31T11:03:36;3;2;
63915;PMS5003;50094;51.356;-0.196;2022-07-31T11:06:05;2;2;
63915;PMS5003;50094;51.356;-0.196;2022-07-31T11:08:42;1;1;
63915;PMS5003;50094;51.356;-0.196;2022-07-31T11:11:12;1;1;
63915;PMS5003;50094;51.356;-0.196;2022-07-31T11:13:44;2;2;
63915;PMS5003;50094;51.356;-0.196;2022-07-31T11:16:12;0;0;
63915;PMS5003;50094;51.356;-0.196;2022-07-31T11:18:40;0;0;
63915;PMS5003;50094;51.356;-0.196;2022-07-31T11:21:08;4;2;
63915;PMS5003;50094;51.356;-0.196;2022-07-31T11:23:36;2;2;
63915;PMS5003;50094;51.356;-0.196;2022-07-31T11:26:04;1;1;
63915;PMS5003;50094;51.356;-0.196;2022-07-31T11:28:33;3;3;
63915;PMS5003;50094;51.356;-0.196;2022-07-31T11:31:02;1;1;
63915;PMS5003;50094;51.356;-0.196;2022-07-31T11:33:31;1;1;
63915;PMS5003;50094;51.356;-0.196;2022-07-31T11:36:05;0;0;
63915;PMS5003;50094;51.356;-0.196;2022-07-31T11:38:35;1;1;
63915;PMS5003;50094;51.356;-0.196;2022-07-31T11:41:02;1;1;
63915;PMS5003;50094;51.356;-0.196;2022-07-31T11:43:31;2;2;
63915;PMS5003;50094;51.356;-0.196;2022-07-31T11:45:59;2;2;
63915;PMS5003;50094;51.356;-0.196;2022-07-31T11:48:26;1;1;
63915;PMS5003;50094;51.356;-0.196;2022-07-31T11:50:54;1;1;
63915;PMS5003;50094;51.356;-0.196;2022-07-31T11:53:21;2;1;
63915;PMS5003;50094;51.356;-0.196;2022-07-31T11:55:50;1;1;
63915;PMS5003;50094;51.356;-0.196;2022-07-31T11:58:19;1;1;
63915;PMS5003;50094;51.356;-0.196;2022-07-31T12:00:51;2;2;
63915;PMS5003;50094;51.356;-0.196;2022-07-31T12:03:21;4;2;
63915;PMS5003;50094;51.356;-0.196;2022-07-31T12:05:50;2;2;
63915;PMS5003;50094;51.356;-0.196;2022-07-31T12:08:18;1;1;
63915;PMS5003;50094;51.356;-0.196;2022-07-31T12:10:46;2;0;
63915;PMS5003;50094;51.356;-0.196;2022-07-31T12:13:15;0;0;
63915;PMS5003;50094;51.356;-0.196;2022-07-31T12:15:59;2;0;
63915;PMS5003;50094;51.356;-0.196;2022-07-31T12:18:30;2;2;
63915;PMS5003;50094;51.356;-0.196;2022-07-31T12:21:00;1;1;
63915;PMS5003;50094;51.356;-0.196;2022-07-31T12:23:37;1;1;
63915;PMS5003;50094;51.356;-0.196;2022-07-31T12:26:06;2;2;
63915;PMS5003;50094;51.356;-0.196;2022-07-31T12:28:33;0;0;
63915;PMS5003;50094;51.356;-0.196;2022-07-31T12:31:01;1;1;
63915;PMS5003;50094;51.356;-0.196;2022-07-31T12:33:38;1;1;
63915;PMS5003;50094;51.356;-0.196;2022-07-31T12:36:10;2;2;
63915;PMS5003;50094;51.356;-0.196;2022-07-31T12:38:38;1;1;
63915;PMS5003;50094;51.356;-0.196;2022-07-31T12:41:05;1;1;
63915;PMS5003;50094;51.356;-0.196;2022-07-31T12:43:33;0;0;
63915;PMS5003;50094;51.356;-0.196;2022-07-31T12:46:01;0;0;
63915;PMS5003;50094;51.356;-0.196;2022-07-31T12:48:28;2;1;
63915;PMS5003;50094;51.356;-0.196;2022-07-31T12:50:56;0;0;
63915;PMS5003;50094;51.356;-0.196;2022-07-31T12:53:25;1;1;
63915;PMS5003;50094;51.356;-0.196;2022-07-31T12:55:54;1;1;
63915;PMS5003;50094;51.356;-0.196;2022-07-31T12:58:21;0;0;
63915;PMS5003;50094;51.356;-0.196;2022-07-31T13:00:49;1;1;
63915;PMS5003;50094;51.356;-0.196;2022-07-31T13:03:17;2;1;
63915;PMS5003;50094;51.356;-0.196;2022-07-31T13:05:44;1;1;
63915;PMS5003;50094;51.356;-0.196;2022-07-31T13:08:12;0;0;
63915;PMS5003;50094;51.356;-0.196;2022-07-31T13:10:39;1;1;
63915;PMS5003;50094;51.356;-0.196;2022-07-31T13:13:07;0;0;
63915;PMS5003;50094;51.356;-0.196;2022-07-31T13:15:35;0;0;
63915;PMS5003;50094;51.356;-0.196;2022-07-31T13:18:03;0;0;
63915;PMS5003;50094;51.356;-0.196;2022-07-31T13:20:30;1;1;
63915;PMS5003;50094;51.356;-0.196;2022-07-31T13:22:58;0;0;
63915;PMS5003;50094;51.356;-0.196;2022-07-31T13:25:26;0;0;
63915;PMS5003;50094;51.356;-0.196;2022-07-31T13:27:55;0;0;
63915;PMS5003;50094;51.356;-0.196;2022-07-31T13:30:22;1;1;
63915;PMS5003;50094;51.356;-0.196;2022-07-31T13:32:50;0;0;
63915;PMS5003;50094;51.356;-0.196;2022-07-31T13:35:18;1;1;
63915;PMS5003;50094;51.356;-0.196;2022-07-31T13:37:45;0;0;
63915;PMS5003;50094;51.356;-0.196;2022-07-31T13:40:13;0;0;
63915;PMS5003;50094;51.356;-0.196;2022-07-31T13:42:40;1;0;
63915;PMS5003;50094;51.356;-0.196;2022-07-31T13:45:08;0;0;
63915;PMS5003;50094;51.356;-0.196;2022-07-31T13:47:36;0;0;
63915;PMS5003;50094;51.356;-0.196;2022-07-31T13:50:04;1;1;
63915;PMS5003;50094;51.356;-0.196;2022-07-31T13:52:32;0;0;
63915;PMS5003;50094;51.356;-0.196;2022-07-31T13:54:59;1;0;
63915;PMS5003;50094;51.356;-0.196;2022-07-31T13:57:27;1;1;
63915;PMS5003;50094;51.356;-0.196;2022-07-31T13:59:54;1;1;
63915;PMS5003;50094;51.356;-0.196;2022-07-31T14:02:22;0;0;
63915;PMS5003;50094;51.356;-0.196;2022-07-31T14:04:50;0;0;
63915;PMS5003;50094;51.356;-0.196;2022-07-31T14:07:17;4;1;
63915;PMS5003;50094;51.356;-0.196;2022-07-31T14:09:45;0;0;
63915;PMS5003;50094;51.356;-0.196;2022-07-31T14:12:13;0;0;
63915;PMS5003;50094;51.356;-0.196;2022-07-31T14:14:40;1;1;
63915;PMS5003;50094;51.356;-0.196;2022-07-31T14:17:08;0;0;
63915;PMS5003;50094;51.356;-0.196;2022-07-31T14:19:35;0;0;
63915;PMS5003;50094;51.356;-0.196;2022-07-31T14:22:03;1;1;
63915;PMS5003;50094;51.356;-0.196;2022-07-31T14:24:31;0;0;
63915;PMS5003;50094;51.356;-0.196;2022-07-31T14:26:58;0;0;
63915;PMS5003;50094;51.356;-0.196;2022-07-31T14:29:26;1;0;
63915;PMS5003;50094;51.356;-0.196;2022-07-31T14:31:54;0;0;
63915;PMS5003;50094;51.356;-0.196;2022-07-31T14:34:21;0;0;
63915;PMS5003;50094;51.356;-0.196;2022-07-31T14:36:49;1;1;
63915;PMS5003;50094;51.356;-0.196;2022-07-31T14:39:16;1;0;
63915;PMS5003;50094;51.356;-0.196;2022-07-31T14:41:44;0;0;
63915;PMS5003;50094;51.356;-0.196;2022-07-31T14:44:12;0;0;
63915;PMS5003;50094;51.356;-0.196;2022-07-31T14:46:39;0;0;
63915;PMS5003;50094;51.356;-0.196;2022-07-31T14:49:07;0;0;
63915;PMS5003;50094;51.356;-0.196;2022-07-31T14:51:35;0;0;
63915;PMS5003;50094;51.356;-0.196;2022-07-31T14:54:03;2;0;
63915;PMS5003;50094;51.356;-0.196;2022-07-31T14:56:30;0;0;
63915;PMS5003;50094;51.356;-0.196;2022-07-31T14:58:57;0;0;
63915;PMS5003;50094;51.356;-0.196;2022-07-31T15:01:25;1;1;
63915;PMS5003;50094;51.356;-0.196;2022-07-31T15:03:53;2;1;
63915;PMS5003;50094;51.356;-0.196;2022-07-31T15:06:20;0;0;
63915;PMS5003;50094;51.356;-0.196;2022-07-31T15:08:48;0;0;
63915;PMS5003;50094;51.356;-0.196;2022-07-31T15:11:15;0;0;
63915;PMS5003;50094;51.356;-0.196;2022-07-31T15:13:43;0;0;
63915;PMS5003;50094;51.356;-0.196;2022-07-31T15:16:11;0;0;
63915;PMS5003;50094;51.356;-0.196;2022-07-31T15:18:38;0;0;
63915;PMS5003;50094;51.356;-0.196;2022-07-31T15:21:09;0;0;
63915;PMS5003;50094;51.356;-0.196;2022-07-31T15:23:37;2;1;
63915;PMS5003;50094;51.356;-0.196;2022-07-31T15:26:05;0;0;
63915;PMS5003;50094;51.356;-0.196;2022-07-31T15:28:32;0;0;
63915;PMS5003;50094;51.356;-0.196;2022-07-31T15:31:00;0;0;
63915;PMS5003;50094;51.356;-0.196;2022-07-31T15:33:27;1;1;
63915;PMS5003;50094;51.356;-0.196;2022-07-31T15:35:55;0;0;
63915;PMS5003;50094;51.356;-0.196;2022-07-31T15:38:23;0;0;
63915;PMS5003;50094;51.356;-0.196;2022-07-31T15:40:50;0;0;
63915;PMS5003;50094;51.356;-0.196;2022-07-31T15:43:17;0;0;
63915;PMS5003;50094;51.356;-0.196;2022-07-31T15:45:45;1;1;
63915;PMS5003;50094;51.356;-0.196;2022-07-31T15:48:12;0;0;
63915;PMS5003;50094;51.356;-0.196;2022-07-31T15:50:40;0;0;
63915;PMS5003;50094;51.356;-0.196;2022-07-31T15:53:08;1;0;
63915;PMS5003;50094;51.356;-0.196;2022-07-31T15:55:35;0;0;
63915;PMS5003;50094;51.356;-0.196;2022-07-31T15:58:03;1;1;
63915;PMS5003;50094;51.356;-0.196;2022-07-31T16:00:30;0;0;
63915;PMS5003;50094;51.356;-0.196;2022-07-31T16:02:58;0;0;
63915;PMS5003;50094;51.356;-0.196;2022-07-31T16:05:26;1;1;
63915;PMS5003;50094;51.356;-0.196;2022-07-31T16:07:53;0;0;
63915;PMS5003;50094;51.356;-0.196;2022-07-31T16:10:21;0;0;
63915;PMS5003;50094;51.356;-0.196;2022-07-31T16:12:49;0;0;
63915;PMS5003;50094;51.356;-0.196;2022-07-31T16:15:16;0;0;
63915;PMS5003;50094;51.356;-0.196;2022-07-31T16:17:44;0;0;
63915;PMS5003;50094;51.356;-0.196;2022-07-31T16:20:12;0;0;
63915;PMS5003;50094;51.356;-0.196;2022-07-31T16:22:41;0;0;
63915;PMS5003;50094;51.356;-0.196;2022-07-31T16:25:09;1;0;
63915;PMS5003;50094;51.356;-0.196;2022-07-31T16:27:36;1;1;
63915;PMS5003;50094;51.356;-0.196;2022-07-31T16:30:05;0;0;
63915;PMS5003;50094;51.356;-0.196;2022-07-31T16:32:33;0;0;
63915;PMS5003;50094;51.356;-0.196;2022-07-31T16:35:01;2;0;
63915;PMS5003;50094;51.356;-0.196;2022-07-31T16:37:28;1;0;
63915;PMS5003;50094;51.356;-0.196;2022-07-31T16:39:56;0;0;
63915;PMS5003;50094;51.356;-0.196;2022-07-31T16:42:23;1;1;